sensor_id;sensor_type;location;lat;lon;timestamp;P1;durP1;ratioP1;P2;durP2;ratioP2
36379;SDS011;22411;53.016;18.632;2023-09-18T00:00:46;10.38;;;7.60;;
36379;SDS011;22411;53.016;18.632;2023-09-18T00:03:35;9.15;;;6.90;;
36379;SDS011;22411;53.016;18.632;2023-09-18T00:06:01;8.43;;;7.25;;
36379;SDS011;22411;53.016;18.632;2023-09-18T00:08:27;9.02;;;7.15;;
36379;SDS011;22411;53.016;18.632;2023-09-18T00:10:53;8.48;;;7.15;;
36379;SDS011;22411;53.016;18.632;2023-09-18T00:13:20;8.68;;;7.18;;
36379;SDS011;22411;53.016;18.632;2023-09-18T00:15:47;10.25;;;6.72;;
36379;SDS011;22411;53.016;18.632;2023-09-18T00:18:13;8.95;;;7.00;;
36379;SDS011;22411;53.016;18.632;2023-09-18T00:20:40;10.98;;;8.07;;
36379;SDS011;22411;53.016;18.632;2023-09-18T00:23:06;8.98;;;7.13;;
36379;SDS011;22411;53.016;18.632;2023-09-18T00:25:33;8.65;;;6.85;;
36379;SDS011;22411;53.016;18.632;2023-09-18T00:27:59;9.95;;;7.95;;
36379;SDS011;22411;53.016;18.632;2023-09-18T00:30:25;10.75;;;7.20;;
36379;SDS011;22411;53.016;18.632;2023-09-18T00:32:50;9.68;;;8.35;;
36379;SDS011;22411;53.016;18.632;2023-09-18T00:35:16;9.35;;;7.00;;
36379;SDS011;22411;53.016;18.632;2023-09-18T00:37:42;13.15;;;8.73;;
36379;SDS011;22411;53.016;18.632;2023-09-18T00:40:08;9.15;;;7.72;;
36379;SDS011;22411;53.016;18.632;2023-09-18T00:42:34;10.13;;;8.00;;
36379;SDS011;22411;53.016;18.632;2023-09-18T00:45:00;9.15;;;7.28;;
36379;SDS011;22411;53.016;18.632;2023-09-18T00:47:26;9.70;;;7.95;;
36379;SDS011;22411;53.016;18.632;2023-09-18T00:49:52;9.88;;;7.65;;
36379;SDS011;22411;53.016;18.632;2023-09-18T00:52:18;10.55;;;7.38;;
36379;SDS011;22411;53.016;18.632;2023-09-18T00:54:45;11.25;;;7.50;;
36379;SDS011;22411;53.016;18.632;2023-09-18T00:57:13;11.02;;;8.27;;
36379;SDS011;22411;53.016;18.632;2023-09-18T00:59:39;9.77;;;7.93;;
36379;SDS011;22411;53.016;18.632;2023-09-18T01:02:05;10.40;;;8.13;;
36379;SDS011;22411;53.016;18.632;2023-09-18T01:04:31;14.10;;;8.80;;
36379;SDS011;22411;53.016;18.632;2023-09-18T01:07:01;9.52;;;7.93;;
36379;SDS011;22411;53.016;18.632;2023-09-18T01:09:32;11.05;;;8.45;;
36379;SDS011;22411;53.016;18.632;2023-09-18T01:12:08;10.13;;;8.15;;
36379;SDS011;22411;53.016;18.632;2023-09-18T01:17:16;9.75;;;8.43;;
36379;SDS011;22411;53.016;18.632;2023-09-18T01:19:43;10.45;;;8.27;;
36379;SDS011;22411;53.016;18.632;2023-09-18T01:22:12;12.20;;;7.55;;
36379;SDS011;22411;53.016;18.632;2023-09-18T01:24:39;10.90;;;8.93;;
36379;SDS011;22411;53.016;18.632;2023-09-18T01:27:06;10.23;;;8.20;;
36379;SDS011;22411;53.016;18.632;2023-09-18T01:29:36;12.63;;;8.82;;
36379;SDS011;22411;53.016;18.632;2023-09-18T01:32:02;11.32;;;8.45;;
36379;SDS011;22411;53.016;18.632;2023-09-18T01:34:34;9.88;;;7.88;;
36379;SDS011;22411;53.016;18.632;2023-09-18T01:37:07;10.77;;;9.07;;
36379;SDS011;22411;53.016;18.632;2023-09-18T01:39:35;11.55;;;8.60;;
36379;SDS011;22411;53.016;18.632;2023-09-18T01:42:02;11.32;;;9.07;;
36379;SDS011;22411;53.016;18.632;2023-09-18T01:44:32;11.90;;;9.02;;
36379;SDS011;22411;53.016;18.632;2023-09-18T01:47:01;11.43;;;8.77;;
36379;SDS011;22411;53.016;18.632;2023-09-18T01:49:29;9.68;;;8.48;;
36379;SDS011;22411;53.016;18.632;2023-09-18T01:51:59;13.95;;;8.45;;
36379;SDS011;22411;53.016;18.632;2023-09-18T01:54:25;13.13;;;8.77;;
36379;SDS011;22411;53.016;18.632;2023-09-18T01:56:51;11.95;;;8.60;;
36379;SDS011;22411;53.016;18.632;2023-09-18T01:59:19;13.50;;;8.90;;
36379;SDS011;22411;53.016;18.632;2023-09-18T02:01:45;12.40;;;8.90;;
36379;SDS011;22411;53.016;18.632;2023-09-18T02:04:11;10.25;;;8.10;;
36379;SDS011;22411;53.016;18.632;2023-09-18T02:06:37;10.35;;;8.00;;
36379;SDS011;22411;53.016;18.632;2023-09-18T02:09:03;15.32;;;9.32;;
36379;SDS011;22411;53.016;18.632;2023-09-18T02:11:41;15.65;;;8.68;;
36379;SDS011;22411;53.016;18.632;2023-09-18T02:14:09;10.80;;;8.98;;
36379;SDS011;22411;53.016;18.632;2023-09-18T02:16:35;10.23;;;8.80;;
36379;SDS011;22411;53.016;18.632;2023-09-18T02:19:02;13.70;;;9.30;;
36379;SDS011;22411;53.016;18.632;2023-09-18T02:21:29;9.98;;;8.73;;
36379;SDS011;22411;53.016;18.632;2023-09-18T02:23:56;11.35;;;8.85;;
36379;SDS011;22411;53.016;18.632;2023-09-18T02:26:22;10.15;;;8.43;;
36379;SDS011;22411;53.016;18.632;2023-09-18T02:28:49;9.93;;;8.50;;
36379;SDS011;22411;53.016;18.632;2023-09-18T02:31:16;11.13;;;8.95;;
36379;SDS011;22411;53.016;18.632;2023-09-18T02:33:42;11.75;;;9.18;;
36379;SDS011;22411;53.016;18.632;2023-09-18T02:36:08;10.07;;;8.57;;
36379;SDS011;22411;53.016;18.632;2023-09-18T02:38:34;11.10;;;8.05;;
36379;SDS011;22411;53.016;18.632;2023-09-18T02:41:00;12.88;;;8.32;;
36379;SDS011;22411;53.016;18.632;2023-09-18T02:43:26;11.00;;;8.85;;
36379;SDS011;22411;53.016;18.632;2023-09-18T02:45:52;13.52;;;8.30;;
36379;SDS011;22411;53.016;18.632;2023-09-18T02:48:18;9.70;;;8.35;;
36379;SDS011;22411;53.016;18.632;2023-09-18T02:50:44;11.50;;;8.38;;
36379;SDS011;22411;53.016;18.632;2023-09-18T02:53:23;12.05;;;8.98;;
36379;SDS011;22411;53.016;18.632;2023-09-18T02:55:50;12.25;;;9.35;;
36379;SDS011;22411;53.016;18.632;2023-09-18T02:58:17;12.07;;;8.77;;
36379;SDS011;22411;53.016;18.632;2023-09-18T03:00:48;11.32;;;8.98;;
36379;SDS011;22411;53.016;18.632;2023-09-18T03:03:15;11.13;;;8.80;;
36379;SDS011;22411;53.016;18.632;2023-09-18T03:05:42;9.90;;;8.90;;
36379;SDS011;22411;53.016;18.632;2023-09-18T03:08:09;12.20;;;9.07;;
36379;SDS011;22411;53.016;18.632;2023-09-18T03:10:36;10.70;;;8.85;;
36379;SDS011;22411;53.016;18.632;2023-09-18T03:13:05;8.98;;;7.68;;
36379;SDS011;22411;53.016;18.632;2023-09-18T03:15:32;11.48;;;8.52;;
36379;SDS011;22411;53.016;18.632;2023-09-18T03:17:58;12.77;;;9.70;;
36379;SDS011;22411;53.016;18.632;2023-09-18T03:20:25;10.95;;;8.90;;
36379;SDS011;22411;53.016;18.632;2023-09-18T03:22:52;11.10;;;8.43;;
36379;SDS011;22411;53.016;18.632;2023-09-18T03:25:19;9.00;;;7.05;;
36379;SDS011;22411;53.016;18.632;2023-09-18T03:27:45;9.95;;;8.85;;
36379;SDS011;22411;53.016;18.632;2023-09-18T03:30:10;10.77;;;9.23;;
36379;SDS011;22411;53.016;18.632;2023-09-18T03:32:42;10.60;;;8.50;;
36379;SDS011;22411;53.016;18.632;2023-09-18T03:35:09;11.85;;;7.97;;
36379;SDS011;22411;53.016;18.632;2023-09-18T03:37:41;12.45;;;8.02;;
36379;SDS011;22411;53.016;18.632;2023-09-18T03:40:07;11.38;;;8.88;;
36379;SDS011;22411;53.016;18.632;2023-09-18T03:42:34;9.55;;;8.18;;
36379;SDS011;22411;53.016;18.632;2023-09-18T03:44:59;10.50;;;8.85;;
36379;SDS011;22411;53.016;18.632;2023-09-18T03:47:25;11.75;;;10.25;;
36379;SDS011;22411;53.016;18.632;2023-09-18T03:49:51;11.07;;;8.98;;
36379;SDS011;22411;53.016;18.632;2023-09-18T03:52:17;12.82;;;9.52;;
36379;SDS011;22411;53.016;18.632;2023-09-18T03:54:42;12.57;;;9.40;;
36379;SDS011;22411;53.016;18.632;2023-09-18T03:57:08;12.32;;;9.50;;
36379;SDS011;22411;53.016;18.632;2023-09-18T03:59:34;10.52;;;8.63;;
36379;SDS011;22411;53.016;18.632;2023-09-18T04:01:59;10.93;;;9.45;;
36379;SDS011;22411;53.016;18.632;2023-09-18T04:04:25;12.00;;;9.38;;
36379;SDS011;22411;53.016;18.632;2023-09-18T04:06:51;13.82;;;10.00;;
36379;SDS011;22411;53.016;18.632;2023-09-18T04:09:19;12.70;;;9.68;;
36379;SDS011;22411;53.016;18.632;2023-09-18T04:11:44;11.35;;;9.48;;
36379;SDS011;22411;53.016;18.632;2023-09-18T04:14:11;12.45;;;9.40;;
36379;SDS011;22411;53.016;18.632;2023-09-18T04:16:37;11.48;;;9.13;;
36379;SDS011;22411;53.016;18.632;2023-09-18T04:19:05;11.35;;;10.05;;
36379;SDS011;22411;53.016;18.632;2023-09-18T04:21:31;12.40;;;9.77;;
36379;SDS011;22411;53.016;18.632;2023-09-18T04:23:56;11.48;;;9.55;;
36379;SDS011;22411;53.016;18.632;2023-09-18T04:26:24;12.40;;;9.88;;
36379;SDS011;22411;53.016;18.632;2023-09-18T04:28:54;11.55;;;9.20;;
36379;SDS011;22411;53.016;18.632;2023-09-18T04:31:21;11.30;;;8.82;;
36379;SDS011;22411;53.016;18.632;2023-09-18T04:33:46;11.60;;;9.63;;
36379;SDS011;22411;53.016;18.632;2023-09-18T04:36:12;11.80;;;9.85;;
36379;SDS011;22411;53.016;18.632;2023-09-18T04:38:38;12.95;;;10.23;;
36379;SDS011;22411;53.016;18.632;2023-09-18T04:41:03;11.55;;;8.88;;
36379;SDS011;22411;53.016;18.632;2023-09-18T04:43:29;13.45;;;10.45;;
36379;SDS011;22411;53.016;18.632;2023-09-18T04:45:55;14.27;;;10.48;;
36379;SDS011;22411;53.016;18.632;2023-09-18T04:48:21;13.57;;;10.30;;
36379;SDS011;22411;53.016;18.632;2023-09-18T04:50:48;11.95;;;9.95;;
36379;SDS011;22411;53.016;18.632;2023-09-18T04:53:14;11.00;;;9.75;;
36379;SDS011;22411;53.016;18.632;2023-09-18T04:55:40;11.98;;;9.38;;
36379;SDS011;22411;53.016;18.632;2023-09-18T04:58:05;12.48;;;9.90;;
36379;SDS011;22411;53.016;18.632;2023-09-18T05:00:32;11.05;;;8.80;;
36379;SDS011;22411;53.016;18.632;2023-09-18T05:02:58;12.75;;;9.10;;
36379;SDS011;22411;53.016;18.632;2023-09-18T05:05:27;13.27;;;10.18;;
36379;SDS011;22411;53.016;18.632;2023-09-18T05:07:53;12.10;;;9.82;;
36379;SDS011;22411;53.016;18.632;2023-09-18T05:10:19;12.25;;;9.52;;
36379;SDS011;22411;53.016;18.632;2023-09-18T05:12:45;11.05;;;9.30;;
36379;SDS011;22411;53.016;18.632;2023-09-18T05:15:11;12.68;;;9.48;;
36379;SDS011;22411;53.016;18.632;2023-09-18T05:17:44;11.57;;;8.73;;
36379;SDS011;22411;53.016;18.632;2023-09-18T05:20:13;15.82;;;9.68;;
36379;SDS011;22411;53.016;18.632;2023-09-18T05:22:41;10.45;;;9.25;;
36379;SDS011;22411;53.016;18.632;2023-09-18T05:25:10;13.05;;;9.02;;
36379;SDS011;22411;53.016;18.632;2023-09-18T05:27:36;12.88;;;9.85;;
36379;SDS011;22411;53.016;18.632;2023-09-18T05:30:17;14.05;;;9.32;;
36379;SDS011;22411;53.016;18.632;2023-09-18T05:32:46;10.73;;;9.10;;
36379;SDS011;22411;53.016;18.632;2023-09-18T05:35:13;12.48;;;9.30;;
36379;SDS011;22411;53.016;18.632;2023-09-18T05:37:40;18.48;;;10.38;;
36379;SDS011;22411;53.016;18.632;2023-09-18T05:40:09;11.80;;;8.90;;
36379;SDS011;22411;53.016;18.632;2023-09-18T05:42:36;12.65;;;9.45;;
36379;SDS011;22411;53.016;18.632;2023-09-18T05:45:03;12.38;;;9.80;;
36379;SDS011;22411;53.016;18.632;2023-09-18T05:47:30;11.60;;;9.18;;
36379;SDS011;22411;53.016;18.632;2023-09-18T05:49:58;11.27;;;8.55;;
36379;SDS011;22411;53.016;18.632;2023-09-18T05:52:23;10.27;;;8.40;;
36379;SDS011;22411;53.016;18.632;2023-09-18T05:54:50;10.75;;;9.10;;
36379;SDS011;22411;53.016;18.632;2023-09-18T05:57:17;10.38;;;8.88;;
36379;SDS011;22411;53.016;18.632;2023-09-18T05:59:43;14.75;;;10.13;;
36379;SDS011;22411;53.016;18.632;2023-09-18T06:02:10;11.05;;;8.95;;
36379;SDS011;22411;53.016;18.632;2023-09-18T06:04:36;8.95;;;7.97;;
36379;SDS011;22411;53.016;18.632;2023-09-18T06:07:05;12.80;;;9.68;;
36379;SDS011;22411;53.016;18.632;2023-09-18T06:09:31;11.70;;;8.82;;
36379;SDS011;22411;53.016;18.632;2023-09-18T06:11:57;11.43;;;9.05;;
36379;SDS011;22411;53.016;18.632;2023-09-18T06:14:24;10.65;;;8.50;;
36379;SDS011;22411;53.016;18.632;2023-09-18T06:16:49;12.35;;;9.40;;
36379;SDS011;22411;53.016;18.632;2023-09-18T06:19:16;14.63;;;10.00;;
36379;SDS011;22411;53.016;18.632;2023-09-18T06:21:42;11.90;;;8.80;;
36379;SDS011;22411;53.016;18.632;2023-09-18T06:24:09;12.82;;;8.93;;
36379;SDS011;22411;53.016;18.632;2023-09-18T06:26:35;11.07;;;8.45;;
36379;SDS011;22411;53.016;18.632;2023-09-18T06:29:01;11.73;;;8.63;;
36379;SDS011;22411;53.016;18.632;2023-09-18T06:31:27;14.25;;;9.25;;
36379;SDS011;22411;53.016;18.632;2023-09-18T06:33:54;12.00;;;9.23;;
36379;SDS011;22411;53.016;18.632;2023-09-18T06:36:19;9.98;;;8.07;;
36379;SDS011;22411;53.016;18.632;2023-09-18T06:38:46;11.77;;;9.15;;
36379;SDS011;22411;53.016;18.632;2023-09-18T06:41:11;11.63;;;9.25;;
36379;SDS011;22411;53.016;18.632;2023-09-18T06:43:37;11.55;;;8.23;;
36379;SDS011;22411;53.016;18.632;2023-09-18T06:46:03;12.23;;;9.18;;
36379;SDS011;22411;53.016;18.632;2023-09-18T06:48:29;11.32;;;8.88;;
36379;SDS011;22411;53.016;18.632;2023-09-18T06:51:00;10.98;;;7.90;;
36379;SDS011;22411;53.016;18.632;2023-09-18T06:53:26;9.85;;;7.90;;
36379;SDS011;22411;53.016;18.632;2023-09-18T06:55:55;14.60;;;9.18;;
36379;SDS011;22411;53.016;18.632;2023-09-18T06:58:21;11.57;;;9.27;;
36379;SDS011;22411;53.016;18.632;2023-09-18T07:00:47;14.63;;;9.05;;
36379;SDS011;22411;53.016;18.632;2023-09-18T07:03:13;10.05;;;8.88;;
36379;SDS011;22411;53.016;18.632;2023-09-18T07:05:41;11.75;;;7.82;;
36379;SDS011;22411;53.016;18.632;2023-09-18T07:08:08;11.00;;;7.38;;
36379;SDS011;22411;53.016;18.632;2023-09-18T07:10:37;11.15;;;8.48;;
36379;SDS011;22411;53.016;18.632;2023-09-18T07:13:03;9.75;;;7.57;;
36379;SDS011;22411;53.016;18.632;2023-09-18T07:15:29;10.80;;;8.20;;
36379;SDS011;22411;53.016;18.632;2023-09-18T07:17:55;13.95;;;8.10;;
36379;SDS011;22411;53.016;18.632;2023-09-18T07:20:20;12.57;;;8.60;;
36379;SDS011;22411;53.016;18.632;2023-09-18T07:22:48;10.02;;;7.90;;
36379;SDS011;22411;53.016;18.632;2023-09-18T07:25:14;10.35;;;7.32;;
36379;SDS011;22411;53.016;18.632;2023-09-18T07:27:40;8.57;;;7.20;;
36379;SDS011;22411;53.016;18.632;2023-09-18T07:30:12;9.15;;;6.43;;
36379;SDS011;22411;53.016;18.632;2023-09-18T07:32:42;9.68;;;6.63;;
36379;SDS011;22411;53.016;18.632;2023-09-18T07:35:08;6.28;;;5.30;;
36379;SDS011;22411;53.016;18.632;2023-09-18T07:37:35;6.07;;;5.47;;
36379;SDS011;22411;53.016;18.632;2023-09-18T07:40:02;8.80;;;6.05;;
36379;SDS011;22411;53.016;18.632;2023-09-18T07:42:32;9.77;;;6.13;;
36379;SDS011;22411;53.016;18.632;2023-09-18T07:44:58;6.90;;;5.95;;
36379;SDS011;22411;53.016;18.632;2023-09-18T07:47:24;8.18;;;5.30;;
36379;SDS011;22411;53.016;18.632;2023-09-18T07:49:50;7.88;;;5.97;;
36379;SDS011;22411;53.016;18.632;2023-09-18T07:52:16;8.45;;;5.95;;
36379;SDS011;22411;53.016;18.632;2023-09-18T07:54:43;7.25;;;5.57;;
36379;SDS011;22411;53.016;18.632;2023-09-18T07:57:09;8.05;;;5.53;;
36379;SDS011;22411;53.016;18.632;2023-09-18T07:59:35;7.65;;;5.43;;
36379;SDS011;22411;53.016;18.632;2023-09-18T08:02:02;5.35;;;4.85;;
36379;SDS011;22411;53.016;18.632;2023-09-18T08:04:30;5.57;;;5.00;;
36379;SDS011;22411;53.016;18.632;2023-09-18T08:06:57;7.75;;;5.07;;
36379;SDS011;22411;53.016;18.632;2023-09-18T08:09:22;5.88;;;5.15;;
36379;SDS011;22411;53.016;18.632;2023-09-18T08:11:48;6.70;;;5.15;;
36379;SDS011;22411;53.016;18.632;2023-09-18T08:14:15;7.65;;;4.22;;
36379;SDS011;22411;53.016;18.632;2023-09-18T08:16:42;4.93;;;4.28;;
36379;SDS011;22411;53.016;18.632;2023-09-18T08:19:08;5.28;;;4.75;;
36379;SDS011;22411;53.016;18.632;2023-09-18T08:21:34;16.63;;;6.28;;
36379;SDS011;22411;53.016;18.632;2023-09-18T08:24:00;7.78;;;4.88;;
36379;SDS011;22411;53.016;18.632;2023-09-18T08:26:26;4.07;;;3.70;;
36379;SDS011;22411;53.016;18.632;2023-09-18T08:28:53;5.55;;;4.30;;
36379;SDS011;22411;53.016;18.632;2023-09-18T08:31:19;5.13;;;4.18;;
36379;SDS011;22411;53.016;18.632;2023-09-18T08:33:45;4.82;;;4.32;;
36379;SDS011;22411;53.016;18.632;2023-09-18T08:36:11;7.70;;;4.00;;
36379;SDS011;22411;53.016;18.632;2023-09-18T08:38:36;36.88;;;6.18;;
36379;SDS011;22411;53.016;18.632;2023-09-18T08:41:02;6.97;;;4.47;;
36379;SDS011;22411;53.016;18.632;2023-09-18T08:43:29;4.60;;;3.55;;
36379;SDS011;22411;53.016;18.632;2023-09-18T08:46:00;6.13;;;4.25;;
36379;SDS011;22411;53.016;18.632;2023-09-18T08:48:28;4.05;;;3.70;;
36379;SDS011;22411;53.016;18.632;2023-09-18T08:51:04;4.70;;;3.50;;
36379;SDS011;22411;53.016;18.632;2023-09-18T08:53:31;7.97;;;4.00;;
36379;SDS011;22411;53.016;18.632;2023-09-18T08:55:58;4.07;;;3.47;;
36379;SDS011;22411;53.016;18.632;2023-09-18T08:58:31;3.50;;;3.20;;
36379;SDS011;22411;53.016;18.632;2023-09-18T09:01:01;4.60;;;3.90;;
36379;SDS011;22411;53.016;18.632;2023-09-18T09:03:29;3.70;;;3.10;;
36379;SDS011;22411;53.016;18.632;2023-09-18T09:05:56;4.88;;;2.92;;
36379;SDS011;22411;53.016;18.632;2023-09-18T09:08:22;4.47;;;3.28;;
36379;SDS011;22411;53.016;18.632;2023-09-18T09:10:48;9.07;;;3.00;;
36379;SDS011;22411;53.016;18.632;2023-09-18T09:13:14;4.63;;;3.33;;
36379;SDS011;22411;53.016;18.632;2023-09-18T09:15:44;4.40;;;3.42;;
36379;SDS011;22411;53.016;18.632;2023-09-18T09:18:15;3.55;;;2.63;;
36379;SDS011;22411;53.016;18.632;2023-09-18T09:20:41;3.78;;;3.22;;
36379;SDS011;22411;53.016;18.632;2023-09-18T09:23:19;3.38;;;2.95;;
36379;SDS011;22411;53.016;18.632;2023-09-18T09:25:45;3.28;;;2.58;;
36379;SDS011;22411;53.016;18.632;2023-09-18T09:28:10;4.15;;;3.20;;
36379;SDS011;22411;53.016;18.632;2023-09-18T09:30:37;3.85;;;2.97;;
36379;SDS011;22411;53.016;18.632;2023-09-18T09:33:03;4.15;;;2.83;;
36379;SDS011;22411;53.016;18.632;2023-09-18T09:35:34;3.47;;;3.17;;
36379;SDS011;22411;53.016;18.632;2023-09-18T09:38:01;4.35;;;3.30;;
36379;SDS011;22411;53.016;18.632;2023-09-18T09:40:33;4.05;;;3.20;;
36379;SDS011;22411;53.016;18.632;2023-09-18T09:43:00;3.50;;;3.20;;
36379;SDS011;22411;53.016;18.632;2023-09-18T09:45:28;5.65;;;3.53;;
36379;SDS011;22411;53.016;18.632;2023-09-18T09:47:56;4.68;;;3.13;;
36379;SDS011;22411;53.016;18.632;2023-09-18T09:50:23;4.75;;;3.30;;
36379;SDS011;22411;53.016;18.632;2023-09-18T09:52:51;4.75;;;3.35;;
36379;SDS011;22411;53.016;18.632;2023-09-18T09:57:50;6.45;;;4.05;;
36379;SDS011;22411;53.016;18.632;2023-09-18T10:00:18;5.60;;;3.85;;
36379;SDS011;22411;53.016;18.632;2023-09-18T10:02:56;6.05;;;3.90;;
36379;SDS011;22411;53.016;18.632;2023-09-18T10:05:27;4.40;;;3.92;;
36379;SDS011;22411;53.016;18.632;2023-09-18T10:07:57;18.17;;;4.88;;
36379;SDS011;22411;53.016;18.632;2023-09-18T10:10:29;5.20;;;4.35;;
36379;SDS011;22411;53.016;18.632;2023-09-18T10:13:00;5.30;;;3.97;;
36379;SDS011;22411;53.016;18.632;2023-09-18T10:15:31;6.10;;;4.50;;
36379;SDS011;22411;53.016;18.632;2023-09-18T10:18:02;4.22;;;3.83;;
36379;SDS011;22411;53.016;18.632;2023-09-18T10:20:28;11.00;;;5.07;;
36379;SDS011;22411;53.016;18.632;2023-09-18T10:22:56;8.55;;;5.72;;
36379;SDS011;22411;53.016;18.632;2023-09-18T10:25:30;6.25;;;5.05;;
36379;SDS011;22411;53.016;18.632;2023-09-18T10:27:57;5.60;;;5.05;;
36379;SDS011;22411;53.016;18.632;2023-09-18T10:30:27;6.20;;;5.60;;
36379;SDS011;22411;53.016;18.632;2023-09-18T10:32:55;8.82;;;6.20;;
36379;SDS011;22411;53.016;18.632;2023-09-18T10:35:23;6.32;;;5.72;;
36379;SDS011;22411;53.016;18.632;2023-09-18T10:37:49;6.80;;;6.15;;
36379;SDS011;22411;53.016;18.632;2023-09-18T10:40:19;6.72;;;6.03;;
36379;SDS011;22411;53.016;18.632;2023-09-18T10:42:45;9.35;;;5.97;;
36379;SDS011;22411;53.016;18.632;2023-09-18T10:45:13;7.53;;;5.88;;
36379;SDS011;22411;53.016;18.632;2023-09-18T10:47:44;8.32;;;5.68;;
36379;SDS011;22411;53.016;18.632;2023-09-18T10:50:12;5.35;;;4.85;;
36379;SDS011;22411;53.016;18.632;2023-09-18T10:52:48;6.40;;;5.18;;
36379;SDS011;22411;53.016;18.632;2023-09-18T10:55:14;9.15;;;5.50;;
36379;SDS011;22411;53.016;18.632;2023-09-18T10:57:49;5.72;;;5.20;;
36379;SDS011;22411;53.016;18.632;2023-09-18T11:00:17;5.80;;;5.10;;
36379;SDS011;22411;53.016;18.632;2023-09-18T11:02:49;6.00;;;5.43;;
36379;SDS011;22411;53.016;18.632;2023-09-18T11:05:29;5.53;;;5.03;;
36379;SDS011;22411;53.016;18.632;2023-09-18T11:08:42;8.40;;;5.22;;
36379;SDS011;22411;53.016;18.632;2023-09-18T11:13:30;4.75;;;4.28;;
36379;SDS011;22411;53.016;18.632;2023-09-18T11:16:12;6.10;;;4.57;;
36379;SDS011;22411;53.016;18.632;2023-09-18T11:21:25;4.70;;;4.30;;
36379;SDS011;22411;53.016;18.632;2023-09-18T11:24:11;4.60;;;4.20;;
36379;SDS011;22411;53.016;18.632;2023-09-18T11:26:42;5.05;;;4.65;;
36379;SDS011;22411;53.016;18.632;2023-09-18T11:29:10;5.53;;;4.03;;
36379;SDS011;22411;53.016;18.632;2023-09-18T11:34:13;7.15;;;5.32;;
36379;SDS011;22411;53.016;18.632;2023-09-18T11:36:40;5.63;;;5.00;;
36379;SDS011;22411;53.016;18.632;2023-09-18T11:39:06;6.95;;;4.65;;
36379;SDS011;22411;53.016;18.632;2023-09-18T11:41:35;5.55;;;5.03;;
36379;SDS011;22411;53.016;18.632;2023-09-18T11:46:45;4.75;;;4.07;;
36379;SDS011;22411;53.016;18.632;2023-09-18T11:49:11;4.30;;;4.00;;
36379;SDS011;22411;53.016;18.632;2023-09-18T11:51:41;6.30;;;4.85;;
36379;SDS011;22411;53.016;18.632;2023-09-18T11:54:07;6.03;;;5.00;;
36379;SDS011;22411;53.016;18.632;2023-09-18T11:56:35;5.20;;;4.25;;
36379;SDS011;22411;53.016;18.632;2023-09-18T11:59:01;6.97;;;5.32;;
36379;SDS011;22411;53.016;18.632;2023-09-18T12:01:30;7.30;;;4.83;;
36379;SDS011;22411;53.016;18.632;2023-09-18T12:04:03;7.03;;;6.05;;
36379;SDS011;22411;53.016;18.632;2023-09-18T12:06:40;7.43;;;5.32;;
36379;SDS011;22411;53.016;18.632;2023-09-18T12:09:06;5.85;;;5.18;;
36379;SDS011;22411;53.016;18.632;2023-09-18T12:11:33;5.68;;;5.15;;
36379;SDS011;22411;53.016;18.632;2023-09-18T12:14:04;7.50;;;4.95;;
36379;SDS011;22411;53.016;18.632;2023-09-18T12:16:30;9.07;;;5.53;;
36379;SDS011;22411;53.016;18.632;2023-09-18T12:19:03;6.18;;;5.60;;
36379;SDS011;22411;53.016;18.632;2023-09-18T12:21:31;6.30;;;5.05;;
36379;SDS011;22411;53.016;18.632;2023-09-18T12:23:58;6.07;;;5.18;;
36379;SDS011;22411;53.016;18.632;2023-09-18T12:26:24;6.53;;;5.82;;
36379;SDS011;22411;53.016;18.632;2023-09-18T12:28:51;5.28;;;4.78;;
36379;SDS011;22411;53.016;18.632;2023-09-18T12:31:17;5.35;;;4.85;;
36379;SDS011;22411;53.016;18.632;2023-09-18T12:33:43;11.63;;;5.90;;
36379;SDS011;22411;53.016;18.632;2023-09-18T12:36:09;5.88;;;5.28;;
36379;SDS011;22411;53.016;18.632;2023-09-18T12:38:36;5.72;;;4.60;;
36379;SDS011;22411;53.016;18.632;2023-09-18T12:41:02;4.88;;;4.43;;
36379;SDS011;22411;53.016;18.632;2023-09-18T12:43:41;9.63;;;5.47;;
36379;SDS011;22411;53.016;18.632;2023-09-18T12:46:07;9.63;;;5.72;;
36379;SDS011;22411;53.016;18.632;2023-09-18T12:48:37;7.72;;;4.70;;
36379;SDS011;22411;53.016;18.632;2023-09-18T12:51:07;4.05;;;3.65;;
36379;SDS011;22411;53.016;18.632;2023-09-18T12:53:33;4.15;;;3.85;;
36379;SDS011;22411;53.016;18.632;2023-09-18T12:56:12;7.00;;;4.32;;
36379;SDS011;22411;53.016;18.632;2023-09-18T12:58:39;4.30;;;3.50;;
36379;SDS011;22411;53.016;18.632;2023-09-18T13:01:06;4.25;;;3.88;;
36379;SDS011;22411;53.016;18.632;2023-09-18T13:03:41;4.50;;;4.10;;
36379;SDS011;22411;53.016;18.632;2023-09-18T13:06:09;4.78;;;4.25;;
36379;SDS011;22411;53.016;18.632;2023-09-18T13:08:41;4.43;;;4.13;;
36379;SDS011;22411;53.016;18.632;2023-09-18T13:11:07;4.55;;;3.83;;
36379;SDS011;22411;53.016;18.632;2023-09-18T13:13:32;6.32;;;4.78;;
36379;SDS011;22411;53.016;18.632;2023-09-18T13:15:59;6.13;;;4.38;;
36379;SDS011;22411;53.016;18.632;2023-09-18T13:18:26;5.22;;;4.18;;
36379;SDS011;22411;53.016;18.632;2023-09-18T13:20:52;5.13;;;4.20;;
36379;SDS011;22411;53.016;18.632;2023-09-18T13:23:19;4.70;;;4.13;;
36379;SDS011;22411;53.016;18.632;2023-09-18T13:25:45;7.38;;;4.50;;
36379;SDS011;22411;53.016;18.632;2023-09-18T13:28:12;4.75;;;4.35;;
36379;SDS011;22411;53.016;18.632;2023-09-18T13:30:40;6.40;;;4.85;;
36379;SDS011;22411;53.016;18.632;2023-09-18T13:33:10;5.68;;;4.63;;
36379;SDS011;22411;53.016;18.632;2023-09-18T13:35:39;6.03;;;5.00;;
36379;SDS011;22411;53.016;18.632;2023-09-18T13:38:06;5.25;;;4.75;;
36379;SDS011;22411;53.016;18.632;2023-09-18T13:40:40;6.07;;;5.47;;
36379;SDS011;22411;53.016;18.632;2023-09-18T13:43:10;9.02;;;6.00;;
36379;SDS011;22411;53.016;18.632;2023-09-18T13:45:36;6.20;;;5.60;;
36379;SDS011;22411;53.016;18.632;2023-09-18T13:48:03;6.35;;;5.45;;
36379;SDS011;22411;53.016;18.632;2023-09-18T13:50:30;5.78;;;5.15;;
36379;SDS011;22411;53.016;18.632;2023-09-18T13:52:56;6.32;;;5.72;;
36379;SDS011;22411;53.016;18.632;2023-09-18T13:55:22;6.13;;;5.53;;
36379;SDS011;22411;53.016;18.632;2023-09-18T13:57:48;10.48;;;5.72;;
36379;SDS011;22411;53.016;18.632;2023-09-18T14:00:14;6.32;;;5.10;;
36379;SDS011;22411;53.016;18.632;2023-09-18T14:02:41;7.22;;;5.63;;
36379;SDS011;22411;53.016;18.632;2023-09-18T14:05:07;6.45;;;5.70;;
36379;SDS011;22411;53.016;18.632;2023-09-18T14:07:35;8.27;;;5.95;;
36379;SDS011;22411;53.016;18.632;2023-09-18T14:10:01;6.28;;;5.78;;
36379;SDS011;22411;53.016;18.632;2023-09-18T14:12:30;7.65;;;5.13;;
36379;SDS011;22411;53.016;18.632;2023-09-18T14:14:57;5.55;;;5.00;;
36379;SDS011;22411;53.016;18.632;2023-09-18T14:17:22;6.30;;;5.63;;
36379;SDS011;22411;53.016;18.632;2023-09-18T14:19:48;7.00;;;4.80;;
36379;SDS011;22411;53.016;18.632;2023-09-18T14:22:14;5.70;;;5.18;;
36379;SDS011;22411;53.016;18.632;2023-09-18T14:24:40;4.75;;;4.35;;
36379;SDS011;22411;53.016;18.632;2023-09-18T14:27:06;5.07;;;4.47;;
36379;SDS011;22411;53.016;18.632;2023-09-18T14:29:33;4.78;;;4.38;;
36379;SDS011;22411;53.016;18.632;2023-09-18T14:31:59;4.60;;;4.20;;
36379;SDS011;22411;53.016;18.632;2023-09-18T14:34:25;6.07;;;5.47;;
36379;SDS011;22411;53.016;18.632;2023-09-18T14:36:51;4.95;;;4.55;;
36379;SDS011;22411;53.016;18.632;2023-09-18T14:39:17;5.55;;;4.95;;
36379;SDS011;22411;53.016;18.632;2023-09-18T14:41:43;5.15;;;4.75;;
36379;SDS011;22411;53.016;18.632;2023-09-18T14:44:09;5.55;;;4.47;;
36379;SDS011;22411;53.016;18.632;2023-09-18T14:46:36;5.65;;;4.70;;